sensor_id;sensor_type;location;lat;lon;timestamp;pressure;altitude;pressure_sealevel;temperature;humidity
29121;BME280;16191;49.548;8.658;2022-11-23T00:00:15;98973.47;;;6.70;100.00
29121;BME280;16191;49.548;8.658;2022-11-23T00:02:42;98975.97;;;6.71;100.00
29121;BME280;16191;49.548;8.658;2022-11-23T00:05:09;98971.34;;;6.78;100.00
29121;BME280;16191;49.548;8.658;2022-11-23T00:07:36;98976.22;;;6.85;100.00
29121;BME280;16191;49.548;8.658;2022-11-23T00:10:03;98975.69;;;6.77;100.00
29121;BME280;16191;49.548;8.658;2022-11-23T00:12:29;98975.78;;;6.76;100.00
29121;BME280;16191;49.548;8.658;2022-11-23T00:14:56;98966.38;;;6.73;100.00
29121;BME280;16191;49.548;8.658;2022-11-23T00:17:23;98976.75;;;6.73;100.00
29121;BME280;16191;49.548;8.658;2022-11-23T00:19:49;98985.09;;;6.80;100.00
29121;BME280;16191;49.548;8.658;2022-11-23T00:22:16;98972.19;;;6.78;100.00
29121;BME280;16191;49.548;8.658;2022-11-23T00:24:43;98978.16;;;6.80;100.00
29121;BME280;16191;49.548;8.658;2022-11-23T00:27:10;98979.13;;;6.78;100.00
29121;BME280;16191;49.548;8.658;2022-11-23T00:29:36;98978.38;;;6.76;100.00
29121;BME280;16191;49.548;8.658;2022-11-23T00:32:04;98975.84;;;6.74;100.00
29121;BME280;16191;49.548;8.658;2022-11-23T00:34:30;98973.31;;;6.73;100.00
29121;BME280;16191;49.548;8.658;2022-11-23T00:36:57;98983.53;;;6.76;100.00
29121;BME280;16191;49.548;8.658;2022-11-23T00:39:24;98984.38;;;6.76;100.00
29121;BME280;16191;49.548;8.658;2022-11-23T00:41:50;98979.22;;;6.76;100.00
29121;BME280;16191;49.548;8.658;2022-11-23T00:44:17;98985.16;;;6.78;100.00
29121;BME280;16191;49.548;8.658;2022-11-23T00:46:43;98982.50;;;6.80;100.00
29121;BME280;16191;49.548;8.658;2022-11-23T00:49:10;98991.13;;;6.80;100.00
29121;BME280;16191;49.548;8.658;2022-11-23T00:51:37;98990.41;;;6.77;100.00
29121;BME280;16191;49.548;8.658;2022-11-23T00:54:07;98997.94;;;6.83;100.00
29121;BME280;16191;49.548;8.658;2022-11-23T00:56:34;98994.44;;;6.84;100.00
29121;BME280;16191;49.548;8.658;2022-11-23T00:59:02;98996.94;;;6.85;100.00
29121;BME280;16191;49.548;8.658;2022-11-23T01:01:31;98997.84;;;6.84;100.00
29121;BME280;16191;49.548;8.658;2022-11-23T01:04:07;98995.28;;;6.84;100.00
29121;BME280;16191;49.548;8.658;2022-11-23T01:06:37;98997.22;;;6.79;100.00
29121;BME280;16191;49.548;8.658;2022-11-23T01:09:17;99009.13;;;6.83;100.00
29121;BME280;16191;49.548;8.658;2022-11-23T01:11:44;98999.81;;;6.79;100.00
29121;BME280;16191;49.548;8.658;2022-11-23T01:14:11;99000.72;;;6.78;100.00
29121;BME280;16191;49.548;8.658;2022-11-23T01:16:40;98999.41;;;6.70;100.00
29121;BME280;16191;49.548;8.658;2022-11-23T01:19:13;99008.50;;;6.78;100.00
29121;BME280;16191;49.548;8.658;2022-11-23T01:21:40;98995.59;;;6.77;100.00
29121;BME280;16191;49.548;8.658;2022-11-23T01:24:16;99002.53;;;6.76;100.00
29121;BME280;16191;49.548;8.658;2022-11-23T01:26:43;98996.50;;;6.76;100.00
29121;BME280;16191;49.548;8.658;2022-11-23T01:29:10;99007.72;;;6.76;100.00
29121;BME280;16191;49.548;8.658;2022-11-23T01:31:37;99002.53;;;6.76;100.00
29121;BME280;16191;49.548;8.658;2022-11-23T01:34:13;99012.06;;;6.76;100.00
29121;BME280;16191;49.548;8.658;2022-11-23T01:36:40;99002.47;;;6.78;100.00
29121;BME280;16191;49.548;8.658;2022-11-23T01:39:09;99009.34;;;6.79;100.00
29121;BME280;16191;49.548;8.658;2022-11-23T01:41:37;99008.75;;;6.72;100.00
29121;BME280;16191;49.548;8.658;2022-11-23T01:44:29;99000.91;;;6.74;100.00
29121;BME280;16191;49.548;8.658;2022-11-23T01:46:59;98999.94;;;6.76;100.00
29121;BME280;16191;49.548;8.658;2022-11-23T01:49:29;99007.00;;;6.73;100.00
29121;BME280;16191;49.548;8.658;2022-11-23T01:51:58;99010.38;;;6.75;100.00
29121;BME280;16191;49.548;8.658;2022-11-23T01:54:49;98999.94;;;6.76;100.00
29121;BME280;16191;49.548;8.658;2022-11-23T01:57:40;99004.09;;;6.80;100.00
29121;BME280;16191;49.548;8.658;2022-11-23T02:00:28;99006.94;;;6.74;100.00
29121;BME280;16191;49.548;8.658;2022-11-23T02:03:16;99003.69;;;6.71;100.00
29121;BME280;16191;49.548;8.658;2022-11-23T02:06:08;99005.06;;;6.78;100.00
29121;BME280;16191;49.548;8.658;2022-11-23T02:08:57;99006.94;;;6.74;100.00
29121;BME280;16191;49.548;8.658;2022-11-23T02:11:24;99004.22;;;6.77;100.00
29121;BME280;16191;49.548;8.658;2022-11-23T02:13:50;98993.06;;;6.75;100.00
29121;BME280;16191;49.548;8.658;2022-11-23T02:16:17;98991.25;;;6.77;100.00
29121;BME280;16191;49.548;8.658;2022-11-23T02:18:47;99007.78;;;6.75;100.00
29121;BME280;16191;49.548;8.658;2022-11-23T02:21:18;99006.16;;;6.72;100.00
29121;BME280;16191;49.548;8.658;2022-11-23T02:24:02;99012.97;;;6.75;100.00
29121;BME280;16191;49.548;8.658;2022-11-23T02:26:35;98996.56;;;6.74;100.00
29121;BME280;16191;49.548;8.658;2022-11-23T02:29:07;99003.38;;;6.77;100.00
29121;BME280;16191;49.548;8.658;2022-11-23T02:31:36;99007.84;;;6.73;100.00
29121;BME280;16191;49.548;8.658;2022-11-23T02:34:03;99006.75;;;6.79;100.00
29121;BME280;16191;49.548;8.658;2022-11-23T02:36:40;99005.13;;;6.76;100.00
29121;BME280;16191;49.548;8.658;2022-11-23T02:39:27;99007.84;;;6.73;100.00
29121;BME280;16191;49.548;8.658;2022-11-23T02:41:56;99001.00;;;6.72;100.00
29121;BME280;16191;49.548;8.658;2022-11-23T02:44:36;98999.16;;;6.74;100.00
29121;BME280;16191;49.548;8.658;2022-11-23T02:47:05;98995.66;;;6.75;100.00
29121;BME280;16191;49.548;8.658;2022-11-23T02:49:32;98999.16;;;6.74;100.00
29121;BME280;16191;49.548;8.658;2022-11-23T02:52:00;99001.75;;;6.74;100.00
29121;BME280;16191;49.548;8.658;2022-11-23T02:54:27;99005.25;;;6.73;100.00
29121;BME280;16191;49.548;8.658;2022-11-23T02:56:55;98992.38;;;6.72;100.00
29121;BME280;16191;49.548;8.658;2022-11-23T02:59:22;98992.38;;;6.72;100.00
29121;BME280;16191;49.548;8.658;2022-11-23T03:01:50;98985.59;;;6.69;100.00
29121;BME280;16191;49.548;8.658;2022-11-23T03:04:17;98988.88;;;6.73;100.00
29121;BME280;16191;49.548;8.658;2022-11-23T03:06:52;98985.09;;;6.80;100.00
29121;BME280;16191;49.548;8.658;2022-11-23T03:09:19;98999.75;;;6.81;100.00
29121;BME280;16191;49.548;8.658;2022-11-23T03:11:46;98982.63;;;6.77;100.00
29121;BME280;16191;49.548;8.658;2022-11-23T03:14:13;98985.22;;;6.77;100.00
29121;BME280;16191;49.548;8.658;2022-11-23T03:16:46;98986.84;;;6.79;100.00
29121;BME280;16191;49.548;8.658;2022-11-23T03:19:15;98990.34;;;6.78;100.00
29121;BME280;16191;49.548;8.658;2022-11-23T03:21:42;98986.06;;;6.77;100.00
29121;BME280;16191;49.548;8.658;2022-11-23T03:24:09;98984.38;;;6.76;100.00
29121;BME280;16191;49.548;8.658;2022-11-23T03:26:36;98984.13;;;6.82;100.00
29121;BME280;16191;49.548;8.658;2022-11-23T03:29:08;98990.34;;;6.78;100.00
29121;BME280;16191;49.548;8.658;2022-11-23T03:31:38;98993.00;;;6.77;100.00
29121;BME280;16191;49.548;8.658;2022-11-23T03:34:09;98992.94;;;6.78;100.00
29121;BME280;16191;49.548;8.658;2022-11-23T03:36:37;98993.66;;;6.82;100.00
29121;BME280;16191;49.548;8.658;2022-11-23T03:39:04;99000.59;;;6.81;100.00
29121;BME280;16191;49.548;8.658;2022-11-23T03:41:53;98995.41;;;6.81;100.00
29121;BME280;16191;49.548;8.658;2022-11-23T03:44:23;99001.34;;;6.83;100.00
29121;BME280;16191;49.548;8.658;2022-11-23T03:46:50;98994.56;;;6.81;100.00
29121;BME280;16191;49.548;8.658;2022-11-23T03:49:17;98996.03;;;6.86;100.00
29121;BME280;16191;49.548;8.658;2022-11-23T03:51:44;98989.88;;;6.89;100.00
29121;BME280;16191;49.548;8.658;2022-11-23T03:54:10;98984.97;;;6.83;100.00
29121;BME280;16191;49.548;8.658;2022-11-23T03:56:37;98984.97;;;6.83;100.00
29121;BME280;16191;49.548;8.658;2022-11-23T03:59:04;98996.81;;;6.88;100.00
29121;BME280;16191;49.548;8.658;2022-11-23T04:01:31;98996.50;;;6.95;100.00
29121;BME280;16191;49.548;8.658;2022-11-23T04:04:03;98992.22;;;6.94;100.00
29121;BME280;16191;49.548;8.658;2022-11-23T04:06:48;98995.06;;;6.89;100.00
29121;BME280;16191;49.548;8.658;2022-11-23T04:09:22;99005.38;;;6.91;100.00
29121;BME280;16191;49.548;8.658;2022-11-23T04:12:11;98993.91;;;6.95;100.00
29121;BME280;16191;49.548;8.658;2022-11-23T04:14:38;98994.22;;;6.88;100.00
29121;BME280;16191;49.548;8.658;2022-11-23T04:17:05;98995.84;;;6.91;100.00
29121;BME280;16191;49.548;8.658;2022-11-23T04:19:32;98993.44;;;6.86;100.00
29121;BME280;16191;49.548;8.658;2022-11-23T04:21:59;98999.34;;;6.90;100.00
29121;BME280;16191;49.548;8.658;2022-11-23T04:24:30;98990.84;;;6.86;100.00
29121;BME280;16191;49.548;8.658;2022-11-23T04:27:01;98984.81;;;6.86;100.00
29121;BME280;16191;49.548;8.658;2022-11-23T04:29:28;98991.56;;;6.90;100.00
29121;BME280;16191;49.548;8.658;2022-11-23T04:31:55;98993.00;;;6.96;100.00
29121;BME280;16191;49.548;8.658;2022-11-23T04:34:22;98996.69;;;6.92;100.00
29121;BME280;16191;49.548;8.658;2022-11-23T04:36:51;98990.59;;;6.93;100.00
29121;BME280;16191;49.548;8.658;2022-11-23T04:39:25;98994.75;;;6.95;100.00
29121;BME280;16191;49.548;8.658;2022-11-23T04:42:16;98983.91;;;6.87;100.00
29121;BME280;16191;49.548;8.658;2022-11-23T04:44:54;98987.50;;;6.84;100.00
29121;BME280;16191;49.548;8.658;2022-11-23T04:47:23;98993.44;;;6.86;100.00
29121;BME280;16191;49.548;8.658;2022-11-23T04:49:51;98987.16;;;6.92;100.00
29121;BME280;16191;49.548;8.658;2022-11-23T04:52:18;98989.50;;;6.97;100.00
29121;BME280;16191;49.548;8.658;2022-11-23T04:54:48;98990.41;;;6.96;100.00
29121;BME280;16191;49.548;8.658;2022-11-23T04:57:15;98985.53;;;6.90;100.00
29121;BME280;16191;49.548;8.658;2022-11-23T04:59:43;98982.88;;;6.91;100.00
29121;BME280;16191;49.548;8.658;2022-11-23T05:02:10;98982.56;;;6.97;100.00
29121;BME280;16191;49.548;8.658;2022-11-23T05:04:45;98980.88;;;6.96;100.00
29121;BME280;16191;49.548;8.658;2022-11-23T05:07:14;98981.03;;;6.93;100.00
29121;BME280;16191;49.548;8.658;2022-11-23T05:09:45;98981.25;;;6.88;100.00
29121;BME280;16191;49.548;8.658;2022-11-23T05:12:17;98982.31;;;6.84;100.00
29121;BME280;16191;49.548;8.658;2022-11-23T05:14:43;98989.94;;;6.87;100.00
29121;BME280;16191;49.548;8.658;2022-11-23T05:17:14;98986.56;;;6.85;100.00
29121;BME280;16191;49.548;8.658;2022-11-23T05:19:42;98992.34;;;6.92;100.00
29121;BME280;16191;49.548;8.658;2022-11-23T05:22:11;98994.16;;;6.90;100.00
29121;BME280;16191;49.548;8.658;2022-11-23T05:24:39;98991.56;;;6.90;100.00
29121;BME280;16191;49.548;8.658;2022-11-23T05:27:09;98994.81;;;6.94;100.00
29121;BME280;16191;49.548;8.658;2022-11-23T05:29:37;98988.00;;;6.93;100.00
29121;BME280;16191;49.548;8.658;2022-11-23T05:32:05;98995.06;;;6.89;100.00
29121;BME280;16191;49.548;8.658;2022-11-23T05:34:32;98987.34;;;6.87;100.00
29121;BME280;16191;49.548;8.658;2022-11-23T05:37:00;98986.19;;;6.93;100.00
29121;BME280;16191;49.548;8.658;2022-11-23T05:39:27;98984.56;;;6.92;100.00
29121;BME280;16191;49.548;8.658;2022-11-23T05:41:54;98982.09;;;6.89;100.00
29121;BME280;16191;49.548;8.658;2022-11-23T05:44:29;98981.88;;;6.94;100.00
29121;BME280;16191;49.548;8.658;2022-11-23T05:46:57;98985.47;;;6.91;100.00
29121;BME280;16191;49.548;8.658;2022-11-23T05:49:27;98990.66;;;6.91;100.00
29121;BME280;16191;49.548;8.658;2022-11-23T05:51:54;98987.41;;;6.86;100.00
29121;BME280;16191;49.548;8.658;2022-11-23T05:54:22;98985.59;;;6.88;100.00
29121;BME280;16191;49.548;8.658;2022-11-23T05:57:03;98988.13;;;6.90;100.00
29121;BME280;16191;49.548;8.658;2022-11-23T05:59:39;98985.47;;;6.91;100.00
29121;BME280;16191;49.548;8.658;2022-11-23T06:02:07;98996.75;;;6.90;100.00
29121;BME280;16191;49.548;8.658;2022-11-23T06:04:34;98991.25;;;6.96;100.00
29121;BME280;16191;49.548;8.658;2022-11-23T06:07:04;98990.22;;;7.00;100.00
29121;BME280;16191;49.548;8.658;2022-11-23T06:09:43;98993.91;;;6.95;100.00
29121;BME280;16191;49.548;8.658;2022-11-23T06:12:10;98991.31;;;6.95;100.00
29121;BME280;16191;49.548;8.658;2022-11-23T06:14:37;98991.41;;;6.93;100.00
29121;BME280;16191;49.548;8.658;2022-11-23T06:17:04;98990.34;;;6.97;100.00
29121;BME280;16191;49.548;8.658;2022-11-23T06:19:35;98992.94;;;6.97;100.00
29121;BME280;16191;49.548;8.658;2022-11-23T06:22:03;98993.78;;;6.98;100.00
29121;BME280;16191;49.548;8.658;2022-11-23T06:24:35;98998.75;;;7.02;100.00
29121;BME280;16191;49.548;8.658;2022-11-23T06:27:27;98996.94;;;7.04;100.00
29121;BME280;16191;49.548;8.658;2022-11-23T06:29:54;98993.66;;;7.01;100.00
29121;BME280;16191;49.548;8.658;2022-11-23T06:32:23;98994.06;;;7.10;100.00
29121;BME280;16191;49.548;8.658;2022-11-23T06:34:49;98996.94;;;7.04;100.00
29121;BME280;16191;49.548;8.658;2022-11-23T06:37:16;98991.91;;;7.01;100.00
29121;BME280;16191;49.548;8.658;2022-11-23T06:39:49;98995.81;;;7.10;100.00
29121;BME280;16191;49.548;8.658;2022-11-23T06:42:16;98996.88;;;7.06;100.00
29121;BME280;16191;49.548;8.658;2022-11-23T06:45:03;98994.00;;;7.12;100.00
29121;BME280;16191;49.548;8.658;2022-11-23T06:47:30;98990.56;;;7.11;100.00
29121;BME280;16191;49.548;8.658;2022-11-23T06:49:56;98988.66;;;7.15;100.00
29121;BME280;16191;49.548;8.658;2022-11-23T06:52:26;98994.28;;;7.06;100.00
29121;BME280;16191;49.548;8.658;2022-11-23T06:54:54;99004.66;;;7.06;100.00
29121;BME280;16191;49.548;8.658;2022-11-23T06:57:22;99002.84;;;7.08;100.00
29121;BME280;16191;49.548;8.658;2022-11-23T06:59:49;99007.31;;;7.04;100.00
29121;BME280;16191;49.548;8.658;2022-11-23T07:02:21;99014.13;;;7.07;100.00
29121;BME280;16191;49.548;8.658;2022-11-23T07:04:50;99014.06;;;7.08;100.00
29121;BME280;16191;49.548;8.658;2022-11-23T07:07:18;99018.66;;;7.02;100.00
29121;BME280;16191;49.548;8.658;2022-11-23T07:09:52;99016.91;;;7.02;100.00
29121;BME280;16191;49.548;8.658;2022-11-23T07:12:30;99029.13;;;7.00;100.00
29121;BME280;16191;49.548;8.658;2022-11-23T07:14:59;99020.50;;;7.00;100.00
29121;BME280;16191;49.548;8.658;2022-11-23T07:17:29;99020.00;;;7.10;100.00
29121;BME280;16191;49.548;8.658;2022-11-23T07:19:56;99030.66;;;7.04;100.00
29121;BME280;16191;49.548;8.658;2022-11-23T07:22:23;99017.88;;;7.18;100.00
29121;BME280;16191;49.548;8.658;2022-11-23T07:24:50;99025.91;;;7.14;100.00
29121;BME280;16191;49.548;8.658;2022-11-23T07:27:18;99025.91;;;7.14;100.00
29121;BME280;16191;49.548;8.658;2022-11-23T07:29:45;99025.72;;;7.17;100.00
29121;BME280;16191;49.548;8.658;2022-11-23T07:32:12;99033.19;;;7.06;100.00
29121;BME280;16191;49.548;8.658;2022-11-23T07:34:40;99023.94;;;7.00;100.00
29121;BME280;16191;49.548;8.658;2022-11-23T07:37:07;99031.22;;;7.11;100.00
29121;BME280;16191;49.548;8.658;2022-11-23T07:39:35;99030.53;;;7.07;100.00
29121;BME280;16191;49.548;8.658;2022-11-23T07:42:22;99035.44;;;7.13;100.00
29121;BME280;16191;49.548;8.658;2022-11-23T07:45:10;99043.34;;;7.29;100.00
29121;BME280;16191;49.548;8.658;2022-11-23T07:47:41;99045.88;;;7.31;100.00
29121;BME280;16191;49.548;8.658;2022-11-23T07:50:09;99037.88;;;7.35;100.00
29121;BME280;16191;49.548;8.658;2022-11-23T07:52:36;99041.78;;;7.44;100.00
29121;BME280;16191;49.548;8.658;2022-11-23T07:55:04;99049.63;;;7.42;100.00
29121;BME280;16191;49.548;8.658;2022-11-23T07:57:31;99041.91;;;7.41;100.00
29121;BME280;16191;49.548;8.658;2022-11-23T07:59:58;99043.88;;;7.54;100.00
29121;BME280;16191;49.548;8.658;2022-11-23T08:02:25;99049.38;;;7.66;100.00
29121;BME280;16191;49.548;8.658;2022-11-23T08:04:51;99042.16;;;7.72;100.00
29121;BME280;16191;49.548;8.658;2022-11-23T08:07:17;99049.88;;;7.74;100.00
29121;BME280;16191;49.548;8.658;2022-11-23T08:09:45;99043.22;;;7.85;100.00
29121;BME280;16191;49.548;8.658;2022-11-23T08:12:12;99047.66;;;7.83;100.00
29121;BME280;16191;49.548;8.658;2022-11-23T08:14:39;99042.59;;;7.80;100.00
29121;BME280;16191;49.548;8.658;2022-11-23T08:17:05;99040.34;;;7.91;100.00
29121;BME280;16191;49.548;8.658;2022-11-23T08:19:33;99035.13;;;8.09;100.00
29121;BME280;16191;49.548;8.658;2022-11-23T08:21:59;99044.16;;;8.02;100.00
29121;BME280;16191;49.548;8.658;2022-11-23T08:24:26;99044.91;;;8.04;100.00
29121;BME280;16191;49.548;8.658;2022-11-23T08:26:53;99044.91;;;8.04;100.00
29121;BME280;16191;49.548;8.658;2022-11-23T08:29:19;99033.38;;;8.26;100.00
29121;BME280;16191;49.548;8.658;2022-11-23T08:31:46;99041.94;;;8.63;100.00
29121;BME280;16191;49.548;8.658;2022-11-23T08:34:13;99034.00;;;8.49;100.00
29121;BME280;16191;49.548;8.658;2022-11-23T08:36:40;99038.88;;;8.55;100.00
29121;BME280;16191;49.548;8.658;2022-11-23T08:39:06;99035.13;;;8.61;100.00
29121;BME280;16191;49.548;8.658;2022-11-23T08:41:34;99042.00;;;8.62;100.00
29121;BME280;16191;49.548;8.658;2022-11-23T08:44:01;99038.88;;;8.55;100.00
29121;BME280;16191;49.548;8.658;2022-11-23T08:46:27;99040.22;;;8.79;100.00
29121;BME280;16191;49.548;8.658;2022-11-23T08:48:54;99041.91;;;8.96;100.00
29121;BME280;16191;49.548;8.658;2022-11-23T08:51:20;99040.28;;;8.78;100.00
29121;BME280;16191;49.548;8.658;2022-11-23T08:53:50;99041.34;;;9.07;100.00
29121;BME280;16191;49.548;8.658;2022-11-23T08:56:17;99043.59;;;8.97;100.00
29121;BME280;16191;49.548;8.658;2022-11-23T08:58:44;99046.47;;;9.08;100.00
29121;BME280;16191;49.548;8.658;2022-11-23T09:01:13;99050.16;;;9.20;100.00
29121;BME280;16191;49.548;8.658;2022-11-23T09:03:41;99041.66;;;9.32;100.00
29121;BME280;16191;49.548;8.658;2022-11-23T09:06:08;99045.56;;;9.25;100.00
29121;BME280;16191;49.548;8.658;2022-11-23T09:08:35;99044.19;;;9.02;99.46
29121;BME280;16191;49.548;8.658;2022-11-23T09:11:05;99042.41;;;8.87;100.00
29121;BME280;16191;49.548;8.658;2022-11-23T09:13:35;99048.41;;;9.52;100.00
29121;BME280;16191;49.548;8.658;2022-11-23T09:16:03;99052.94;;;9.48;98.04
29121;BME280;16191;49.548;8.658;2022-11-23T09:18:31;99049.03;;;9.87;95.88
29121;BME280;16191;49.548;8.658;2022-11-23T09:21:01;99051.50;;;9.74;96.83
29121;BME280;16191;49.548;8.658;2022-11-23T09:23:29;99054.38;;;10.00;93.17
29121;BME280;16191;49.548;8.658;2022-11-23T09:26:00;99057.22;;;10.11;92.99
29121;BME280;16191;49.548;8.658;2022-11-23T09:28:26;99061.34;;;9.99;92.12
29121;BME280;16191;49.548;8.658;2022-11-23T09:30:54;99053.66;;;9.82;93.20
29121;BME280;16191;49.548;8.658;2022-11-23T09:33:22;99055.50;;;10.25;91.39
29121;BME280;16191;49.548;8.658;2022-11-23T09:35:57;99063.72;;;10.18;92.13
29121;BME280;16191;49.548;8.658;2022-11-23T09:38:24;99067.47;;;10.14;92.52
29121;BME280;16191;49.548;8.658;2022-11-23T09:44:43;99063.16;;;10.28;91.67
29121;BME280;16191;49.548;8.658;2022-11-23T09:52:34;99055.38;;;10.71;87.49
29121;BME280;16191;49.548;8.658;2022-11-23T09:55:16;99048.94;;;10.48;86.98
29121;BME280;16191;49.548;8.658;2022-11-23T09:57:45;99039.59;;;10.30;90.38
29121;BME280;16191;49.548;8.658;2022-11-23T10:00:20;99039.44;;;10.61;86.87
29121;BME280;16191;49.548;8.658;2022-11-23T10:02:47;99039.25;;;10.64;86.65
29121;BME280;16191;49.548;8.658;2022-11-23T10:05:18;99038.94;;;10.41;86.30
29121;BME280;16191;49.548;8.658;2022-11-23T10:08:01;99040.47;;;10.59;84.57
29121;BME280;16191;49.548;8.658;2022-11-23T10:10:40;99041.94;;;10.63;84.38
29121;BME280;16191;49.548;8.658;2022-11-23T10:13:31;99042.44;;;10.55;86.03
29121;BME280;16191;49.548;8.658;2022-11-23T10:19:35;99031.88;;;11.14;82.20
29121;BME280;16191;49.548;8.658;2022-11-23T10:22:14;99035.34;;;10.72;83.34
29121;BME280;16191;49.548;8.658;2022-11-23T10:24:46;99041.41;;;10.72;83.82
29121;BME280;16191;49.548;8.658;2022-11-23T10:27:18;99037.78;;;11.03;82.02
29121;BME280;16191;49.548;8.658;2022-11-23T10:29:45;99037.03;;;11.01;81.16
29121;BME280;16191;49.548;8.658;2022-11-23T10:32:35;99026.59;;;10.87;81.04
29121;BME280;16191;49.548;8.658;2022-11-23T10:35:17;99032.06;;;11.11;80.41
29121;BME280;16191;49.548;8.658;2022-11-23T10:37:44;99030.31;;;10.97;81.71
29121;BME280;16191;49.548;8.658;2022-11-23T10:40:22;99029.47;;;10.96;80.37
29121;BME280;16191;49.548;8.658;2022-11-23T10:42:53;99028.78;;;11.21;80.49
29121;BME280;16191;49.548;8.658;2022-11-23T10:45:25;99027.41;;;11.16;78.22
29121;BME280;16191;49.548;8.658;2022-11-23T10:47:54;99024.31;;;11.50;79.27
29121;BME280;16191;49.548;8.658;2022-11-23T10:50:35;99018.25;;;11.50;77.79
29121;BME280;16191;49.548;8.658;2022-11-23T10:53:21;99030.34;;;11.38;76.75
29121;BME280;16191;49.548;8.658;2022-11-23T10:55:54;99019.06;;;11.64;77.48
29121;BME280;16191;49.548;8.658;2022-11-23T10:58:30;99013.56;;;11.28;77.56
29121;BME280;16191;49.548;8.658;2022-11-23T11:01:05;99012.69;;;11.83;76.81
29121;BME280;16191;49.548;8.658;2022-11-23T11:03:33;99011.50;;;11.47;76.19
29121;BME280;16191;49.548;8.658;2022-11-23T11:06:01;99010.94;;;11.42;77.05
29121;BME280;16191;49.548;8.658;2022-11-23T11:09:00;99013.91;;;11.77;76.82
29121;BME280;16191;49.548;8.658;2022-11-23T11:11:34;99010.97;;;11.55;76.38
29121;BME280;16191;49.548;8.658;2022-11-23T11:14:17;99004.81;;;11.56;76.49
29121;BME280;16191;49.548;8.658;2022-11-23T11:16:55;99003.38;;;11.64;76.96
29121;BME280;16191;49.548;8.658;2022-11-23T11:19:27;98987.81;;;11.90;75.08
29121;BME280;16191;49.548;8.658;2022-11-23T11:21:56;98987.00;;;12.02;73.63
29121;BME280;16191;49.548;8.658;2022-11-23T11:24:35;98991.31;;;11.76;75.65
29121;BME280;16191;49.548;8.658;2022-11-23T11:27:12;98987.63;;;11.66;74.67
29121;BME280;16191;49.548;8.658;2022-11-23T11:35:18;98980.28;;;11.98;72.86
29121;BME280;16191;49.548;8.658;2022-11-23T11:37:50;98971.06;;;11.92;73.07
29121;BME280;16191;49.548;8.658;2022-11-23T11:40:44;98960.09;;;12.13;74.20
29121;BME280;16191;49.548;8.658;2022-11-23T11:43:16;98962.00;;;12.49;70.89
29121;BME280;16191;49.548;8.658;2022-11-23T11:45:54;98955.56;;;12.91;70.37
29121;BME280;16191;49.548;8.658;2022-11-23T11:48:46;98950.91;;;12.20;70.58
29121;BME280;16191;49.548;8.658;2022-11-23T11:54:04;98944.88;;;12.32;70.14
29121;BME280;16191;49.548;8.658;2022-11-23T11:56:38;98950.63;;;12.86;67.42
29121;BME280;16191;49.548;8.658;2022-11-23T11:59:19;98944.31;;;12.52;68.41
29121;BME280;16191;49.548;8.658;2022-11-23T12:02:23;98942.78;;;12.12;67.82
29121;BME280;16191;49.548;8.658;2022-11-23T12:05:09;98935.88;;;12.11;68.08
29121;BME280;16191;49.548;8.658;2022-11-23T12:13:15;98924.72;;;12.70;67.29
29121;BME280;16191;49.548;8.658;2022-11-23T12:15:51;98916.69;;;12.97;65.68
29121;BME280;16191;49.548;8.658;2022-11-23T12:18:27;98931.25;;;12.89;63.73
29121;BME280;16191;49.548;8.658;2022-11-23T12:21:04;98917.59;;;12.60;62.59
29121;BME280;16191;49.548;8.658;2022-11-23T12:23:50;98913.38;;;12.83;63.84
29121;BME280;16191;49.548;8.658;2022-11-23T12:26:41;98909.63;;;13.11;61.28
29121;BME280;16191;49.548;8.658;2022-11-23T12:31:45;98899.47;;;13.19;58.53
29121;BME280;16191;49.548;8.658;2022-11-23T12:42:41;98904.34;;;13.23;58.74
29121;BME280;16191;49.548;8.658;2022-11-23T12:45:31;98904.56;;;12.96;59.13
29121;BME280;16191;49.548;8.658;2022-11-23T12:59:09;98894.50;;;14.19;54.73
29121;BME280;16191;49.548;8.658;2022-11-23T13:01:50;98891.75;;;14.32;53.89
29121;BME280;16191;49.548;8.658;2022-11-23T13:04:51;98889.72;;;14.80;53.35
29121;BME280;16191;49.548;8.658;2022-11-23T13:07:43;98890.47;;;14.26;52.70
29121;BME280;16191;49.548;8.658;2022-11-23T13:10:28;98890.09;;;14.20;55.05
29121;BME280;16191;49.548;8.658;2022-11-23T13:13:21;98875.16;;;13.98;56.01
29121;BME280;16191;49.548;8.658;2022-11-23T13:21:35;98874.22;;;13.99;55.01
29121;BME280;16191;49.548;8.658;2022-11-23T13:24:03;98870.03;;;14.07;54.92
29121;BME280;16191;49.548;8.658;2022-11-23T13:26:30;98873.38;;;13.98;55.33
29121;BME280;16191;49.548;8.658;2022-11-23T13:28:57;98867.78;;;14.14;54.99
29121;BME280;16191;49.548;8.658;2022-11-23T13:31:27;98875.41;;;14.17;54.42
29121;BME280;16191;49.548;8.658;2022-11-23T13:33:59;98869.00;;;14.55;53.96
29121;BME280;16191;49.548;8.658;2022-11-23T13:42:19;98843.53;;;13.88;54.11
29121;BME280;16191;49.548;8.658;2022-11-23T13:44:45;98841.41;;;13.93;53.96
29121;BME280;16191;49.548;8.658;2022-11-23T13:49:50;98825.19;;;14.11;50.97
29121;BME280;16191;49.548;8.658;2022-11-23T13:57:37;98819.84;;;14.12;50.43
29121;BME280;16191;49.548;8.658;2022-11-23T14:09:49;98799.22;;;13.74;50.03
29121;BME280;16191;49.548;8.658;2022-11-23T14:12:41;98798.00;;;13.56;50.45
29121;BME280;16191;49.548;8.658;2022-11-23T14:15:14;98803.00;;;13.59;50.25
29121;BME280;16191;49.548;8.658;2022-11-23T14:37:26;98769.06;;;12.40;54.05
29121;BME280;16191;49.548;8.658;2022-11-23T14:42:50;98776.03;;;12.15;54.36
29121;BME280;16191;49.548;8.658;2022-11-23T14:45:19;98768.47;;;12.23;53.78
29121;BME280;16191;49.548;8.658;2022-11-23T14:47:47;98770.59;;;12.18;53.89
29121;BME280;16191;49.548;8.658;2022-11-23T14:50:25;98775.75;;;12.07;54.89
29121;BME280;16191;49.548;8.658;2022-11-23T14:52:53;98778.72;;;11.90;56.42
29121;BME280;16191;49.548;8.658;2022-11-23T14:55:23;98782.97;;;11.65;56.47
29121;BME280;16191;49.548;8.658;2022-11-23T14:58:01;98796.22;;;11.24;58.06
29121;BME280;16191;49.548;8.658;2022-11-23T15:00:35;98785.91;;;10.96;55.83
29121;BME280;16191;49.548;8.658;2022-11-23T15:03:08;98793.44;;;11.01;57.83